sensor_id;sensor_type;location;lat;lon;timestamp;P1;durP1;ratioP1;P2;durP2;ratioP2
41623;SDS011;27319;50.306;18.926;2023-09-07T00:02:31;12.75;;;7.63;;
41623;SDS011;27319;50.306;18.926;2023-09-07T00:05:32;17.88;;;8.40;;
41623;SDS011;27319;50.306;18.926;2023-09-07T00:08:33;14.95;;;7.78;;
41623;SDS011;27319;50.306;18.926;2023-09-07T00:11:34;16.75;;;7.63;;
41623;SDS011;27319;50.306;18.926;2023-09-07T00:14:35;14.73;;;8.45;;
41623;SDS011;27319;50.306;18.926;2023-09-07T00:17:36;16.55;;;8.27;;
41623;SDS011;27319;50.306;18.926;2023-09-07T00:20:37;15.70;;;8.40;;
41623;SDS011;27319;50.306;18.926;2023-09-07T00:23:39;12.18;;;7.43;;
41623;SDS011;27319;50.306;18.926;2023-09-07T00:26:40;14.65;;;8.13;;
41623;SDS011;27319;50.306;18.926;2023-09-07T00:29:41;14.82;;;8.07;;
41623;SDS011;27319;50.306;18.926;2023-09-07T00:32:41;15.70;;;8.55;;
41623;SDS011;27319;50.306;18.926;2023-09-07T00:35:42;13.40;;;7.53;;
41623;SDS011;27319;50.306;18.926;2023-09-07T00:38:43;12.38;;;7.22;;
41623;SDS011;27319;50.306;18.926;2023-09-07T00:41:44;15.27;;;7.95;;
41623;SDS011;27319;50.306;18.926;2023-09-07T00:44:45;14.18;;;8.23;;
41623;SDS011;27319;50.306;18.926;2023-09-07T00:47:46;14.32;;;8.18;;
41623;SDS011;27319;50.306;18.926;2023-09-07T00:50:47;18.52;;;7.13;;
41623;SDS011;27319;50.306;18.926;2023-09-07T00:53:49;15.40;;;8.48;;
41623;SDS011;27319;50.306;18.926;2023-09-07T00:56:50;12.73;;;7.50;;
41623;SDS011;27319;50.306;18.926;2023-09-07T00:59:51;12.30;;;8.02;;
41623;SDS011;27319;50.306;18.926;2023-09-07T01:02:52;12.88;;;7.85;;
41623;SDS011;27319;50.306;18.926;2023-09-07T01:05:58;13.80;;;8.07;;
41623;SDS011;27319;50.306;18.926;2023-09-07T01:09:05;13.43;;;7.95;;
41623;SDS011;27319;50.306;18.926;2023-09-07T01:12:14;12.88;;;8.02;;
41623;SDS011;27319;50.306;18.926;2023-09-07T01:15:15;14.68;;;7.70;;
41623;SDS011;27319;50.306;18.926;2023-09-07T01:18:16;15.70;;;7.90;;
41623;SDS011;27319;50.306;18.926;2023-09-07T01:21:17;14.68;;;8.73;;
41623;SDS011;27319;50.306;18.926;2023-09-07T01:24:19;11.35;;;8.00;;
41623;SDS011;27319;50.306;18.926;2023-09-07T01:27:21;15.32;;;8.35;;
41623;SDS011;27319;50.306;18.926;2023-09-07T01:30:23;15.25;;;8.57;;
41623;SDS011;27319;50.306;18.926;2023-09-07T01:33:23;16.23;;;8.43;;
41623;SDS011;27319;50.306;18.926;2023-09-07T01:36:24;13.63;;;8.93;;
41623;SDS011;27319;50.306;18.926;2023-09-07T01:39:25;16.25;;;8.50;;
41623;SDS011;27319;50.306;18.926;2023-09-07T01:42:27;12.35;;;7.68;;
41623;SDS011;27319;50.306;18.926;2023-09-07T01:45:27;13.90;;;8.05;;
41623;SDS011;27319;50.306;18.926;2023-09-07T01:48:28;16.02;;;8.75;;
41623;SDS011;27319;50.306;18.926;2023-09-07T01:51:29;14.48;;;8.32;;
41623;SDS011;27319;50.306;18.926;2023-09-07T01:54:30;17.65;;;8.43;;
41623;SDS011;27319;50.306;18.926;2023-09-07T01:57:31;16.75;;;8.38;;
41623;SDS011;27319;50.306;18.926;2023-09-07T02:00:35;14.68;;;8.52;;
41623;SDS011;27319;50.306;18.926;2023-09-07T02:03:37;14.80;;;7.80;;
41623;SDS011;27319;50.306;18.926;2023-09-07T02:06:38;18.13;;;8.05;;
41623;SDS011;27319;50.306;18.926;2023-09-07T02:09:39;13.18;;;7.10;;
41623;SDS011;27319;50.306;18.926;2023-09-07T02:12:40;12.10;;;7.55;;
41623;SDS011;27319;50.306;18.926;2023-09-07T02:15:41;13.27;;;8.35;;
41623;SDS011;27319;50.306;18.926;2023-09-07T02:18:43;12.90;;;7.95;;
41623;SDS011;27319;50.306;18.926;2023-09-07T02:21:45;15.82;;;8.13;;
41623;SDS011;27319;50.306;18.926;2023-09-07T02:24:46;13.05;;;7.38;;
41623;SDS011;27319;50.306;18.926;2023-09-07T02:27:47;17.70;;;8.65;;
41623;SDS011;27319;50.306;18.926;2023-09-07T02:30:48;12.07;;;7.55;;
41623;SDS011;27319;50.306;18.926;2023-09-07T02:33:49;13.93;;;8.73;;
41623;SDS011;27319;50.306;18.926;2023-09-07T02:36:50;13.90;;;8.07;;
41623;SDS011;27319;50.306;18.926;2023-09-07T02:39:50;14.52;;;8.52;;
41623;SDS011;27319;50.306;18.926;2023-09-07T02:42:51;13.02;;;8.18;;
41623;SDS011;27319;50.306;18.926;2023-09-07T02:45:52;13.13;;;7.68;;
41623;SDS011;27319;50.306;18.926;2023-09-07T02:48:53;14.35;;;8.48;;
41623;SDS011;27319;50.306;18.926;2023-09-07T02:51:57;15.68;;;8.73;;
41623;SDS011;27319;50.306;18.926;2023-09-07T02:54:58;23.88;;;8.57;;
41623;SDS011;27319;50.306;18.926;2023-09-07T02:57:58;15.00;;;7.97;;
41623;SDS011;27319;50.306;18.926;2023-09-07T03:01:00;15.00;;;8.20;;
41623;SDS011;27319;50.306;18.926;2023-09-07T03:04:00;15.70;;;8.18;;
41623;SDS011;27319;50.306;18.926;2023-09-07T03:07:04;16.08;;;7.95;;
41623;SDS011;27319;50.306;18.926;2023-09-07T03:10:05;13.05;;;8.68;;
41623;SDS011;27319;50.306;18.926;2023-09-07T03:13:06;12.55;;;7.32;;
41623;SDS011;27319;50.306;18.926;2023-09-07T03:16:07;15.73;;;7.20;;
41623;SDS011;27319;50.306;18.926;2023-09-07T03:19:08;15.00;;;7.85;;
41623;SDS011;27319;50.306;18.926;2023-09-07T03:22:09;15.70;;;8.15;;
41623;SDS011;27319;50.306;18.926;2023-09-07T03:25:11;11.65;;;7.90;;
41623;SDS011;27319;50.306;18.926;2023-09-07T03:28:11;15.60;;;7.88;;
41623;SDS011;27319;50.306;18.926;2023-09-07T03:31:12;12.23;;;7.40;;
41623;SDS011;27319;50.306;18.926;2023-09-07T03:34:13;13.45;;;7.75;;
41623;SDS011;27319;50.306;18.926;2023-09-07T03:37:14;13.50;;;8.05;;
41623;SDS011;27319;50.306;18.926;2023-09-07T03:40:15;13.70;;;7.65;;
41623;SDS011;27319;50.306;18.926;2023-09-07T03:43:17;12.10;;;8.60;;
41623;SDS011;27319;50.306;18.926;2023-09-07T03:46:17;14.70;;;8.05;;
41623;SDS011;27319;50.306;18.926;2023-09-07T03:49:19;16.10;;;7.97;;
41623;SDS011;27319;50.306;18.926;2023-09-07T03:52:19;12.57;;;7.70;;
41623;SDS011;27319;50.306;18.926;2023-09-07T03:55:22;14.98;;;7.93;;
41623;SDS011;27319;50.306;18.926;2023-09-07T03:58:23;14.20;;;8.80;;
41623;SDS011;27319;50.306;18.926;2023-09-07T04:01:24;15.32;;;9.27;;
41623;SDS011;27319;50.306;18.926;2023-09-07T04:04:25;14.40;;;9.13;;
41623;SDS011;27319;50.306;18.926;2023-09-07T04:07:26;16.08;;;9.45;;
41623;SDS011;27319;50.306;18.926;2023-09-07T04:10:27;15.45;;;8.45;;
41623;SDS011;27319;50.306;18.926;2023-09-07T04:13:28;16.00;;;7.95;;
41623;SDS011;27319;50.306;18.926;2023-09-07T04:16:29;18.05;;;9.40;;
41623;SDS011;27319;50.306;18.926;2023-09-07T04:19:30;13.35;;;8.63;;
41623;SDS011;27319;50.306;18.926;2023-09-07T04:22:31;13.77;;;8.40;;
41623;SDS011;27319;50.306;18.926;2023-09-07T06:13:35;14.07;;;8.18;;
41623;SDS011;27319;50.306;18.926;2023-09-07T06:16:36;16.58;;;7.63;;
41623;SDS011;27319;50.306;18.926;2023-09-07T06:19:37;13.27;;;7.07;;
41623;SDS011;27319;50.306;18.926;2023-09-07T06:22:37;13.98;;;7.00;;
41623;SDS011;27319;50.306;18.926;2023-09-07T06:25:39;16.65;;;6.90;;
41623;SDS011;27319;50.306;18.926;2023-09-07T06:28:39;18.17;;;7.75;;
41623;SDS011;27319;50.306;18.926;2023-09-07T06:31:40;14.02;;;7.03;;
41623;SDS011;27319;50.306;18.926;2023-09-07T06:34:41;14.30;;;6.97;;
41623;SDS011;27319;50.306;18.926;2023-09-07T06:37:42;12.57;;;7.07;;
41623;SDS011;27319;50.306;18.926;2023-09-07T06:40:47;16.13;;;7.25;;
41623;SDS011;27319;50.306;18.926;2023-09-07T06:43:49;15.23;;;7.45;;
41623;SDS011;27319;50.306;18.926;2023-09-07T06:46:50;19.33;;;7.65;;
41623;SDS011;27319;50.306;18.926;2023-09-07T06:49:51;16.35;;;6.88;;
41623;SDS011;27319;50.306;18.926;2023-09-07T06:52:51;13.25;;;7.07;;
41623;SDS011;27319;50.306;18.926;2023-09-07T06:55:58;10.80;;;6.20;;
41623;SDS011;27319;50.306;18.926;2023-09-07T06:59:00;10.65;;;5.88;;
41623;SDS011;27319;50.306;18.926;2023-09-07T07:02:01;10.43;;;6.25;;
41623;SDS011;27319;50.306;18.926;2023-09-07T07:05:05;11.07;;;6.00;;
41623;SDS011;27319;50.306;18.926;2023-09-07T07:08:06;9.25;;;5.55;;
41623;SDS011;27319;50.306;18.926;2023-09-07T07:11:07;8.98;;;5.53;;
41623;SDS011;27319;50.306;18.926;2023-09-07T07:14:08;10.63;;;5.82;;
41623;SDS011;27319;50.306;18.926;2023-09-07T07:17:10;14.68;;;6.22;;
41623;SDS011;27319;50.306;18.926;2023-09-07T07:20:11;10.88;;;5.93;;
41623;SDS011;27319;50.306;18.926;2023-09-07T07:23:12;13.65;;;6.60;;
41623;SDS011;27319;50.306;18.926;2023-09-07T07:26:13;13.38;;;6.63;;
41623;SDS011;27319;50.306;18.926;2023-09-07T07:29:14;14.15;;;5.53;;
41623;SDS011;27319;50.306;18.926;2023-09-07T07:32:15;14.73;;;5.63;;
41623;SDS011;27319;50.306;18.926;2023-09-07T07:35:15;7.70;;;4.75;;
41623;SDS011;27319;50.306;18.926;2023-09-07T07:38:17;12.32;;;6.25;;
41623;SDS011;27319;50.306;18.926;2023-09-07T07:41:18;11.52;;;5.50;;
41623;SDS011;27319;50.306;18.926;2023-09-07T07:44:19;14.88;;;5.95;;
41623;SDS011;27319;50.306;18.926;2023-09-07T07:47:19;10.15;;;5.30;;
41623;SDS011;27319;50.306;18.926;2023-09-07T07:50:20;12.52;;;5.40;;
41623;SDS011;27319;50.306;18.926;2023-09-07T07:53:21;14.32;;;5.90;;
41623;SDS011;27319;50.306;18.926;2023-09-07T07:56:23;7.75;;;4.78;;
41623;SDS011;27319;50.306;18.926;2023-09-07T07:59:23;10.27;;;4.85;;
41623;SDS011;27319;50.306;18.926;2023-09-07T08:02:24;13.88;;;5.28;;
41623;SDS011;27319;50.306;18.926;2023-09-07T08:05:25;8.05;;;4.70;;
41623;SDS011;27319;50.306;18.926;2023-09-07T08:08:26;18.33;;;5.53;;
41623;SDS011;27319;50.306;18.926;2023-09-07T08:11:27;8.65;;;4.90;;
41623;SDS011;27319;50.306;18.926;2023-09-07T08:14:28;18.88;;;6.05;;
41623;SDS011;27319;50.306;18.926;2023-09-07T08:17:29;14.30;;;5.13;;
41623;SDS011;27319;50.306;18.926;2023-09-07T08:20:31;11.38;;;4.65;;
41623;SDS011;27319;50.306;18.926;2023-09-07T08:23:32;12.95;;;5.78;;
41623;SDS011;27319;50.306;18.926;2023-09-07T08:26:35;37.58;;;7.75;;
41623;SDS011;27319;50.306;18.926;2023-09-07T08:29:36;7.57;;;4.90;;
41623;SDS011;27319;50.306;18.926;2023-09-07T08:32:37;60.95;;;12.07;;
41623;SDS011;27319;50.306;18.926;2023-09-07T08:35:38;11.73;;;5.85;;
41623;SDS011;27319;50.306;18.926;2023-09-07T08:38:44;10.23;;;5.10;;
41623;SDS011;27319;50.306;18.926;2023-09-07T08:41:45;25.73;;;5.78;;
41623;SDS011;27319;50.306;18.926;2023-09-07T08:44:46;9.23;;;4.30;;
41623;SDS011;27319;50.306;18.926;2023-09-07T08:47:49;8.40;;;4.72;;
41623;SDS011;27319;50.306;18.926;2023-09-07T08:50:51;6.10;;;4.22;;
41623;SDS011;27319;50.306;18.926;2023-09-07T08:53:52;8.57;;;4.53;;
41623;SDS011;27319;50.306;18.926;2023-09-07T08:56:53;10.05;;;5.35;;
41623;SDS011;27319;50.306;18.926;2023-09-07T08:59:57;8.75;;;5.55;;
41623;SDS011;27319;50.306;18.926;2023-09-07T09:02:58;13.73;;;4.28;;
41623;SDS011;27319;50.306;18.926;2023-09-07T09:05:59;7.70;;;4.57;;
41623;SDS011;27319;50.306;18.926;2023-09-07T09:09:00;9.48;;;5.10;;
41623;SDS011;27319;50.306;18.926;2023-09-07T09:12:08;7.78;;;4.97;;
41623;SDS011;27319;50.306;18.926;2023-09-07T09:18:11;7.18;;;4.53;;
41623;SDS011;27319;50.306;18.926;2023-09-07T09:21:14;7.82;;;4.95;;
41623;SDS011;27319;50.306;18.926;2023-09-07T09:24:16;8.00;;;4.07;;
41623;SDS011;27319;50.306;18.926;2023-09-07T09:27:18;7.45;;;3.97;;
41623;SDS011;27319;50.306;18.926;2023-09-07T09:30:20;16.48;;;4.50;;
41623;SDS011;27319;50.306;18.926;2023-09-07T09:33:20;41.90;;;8.93;;
41623;SDS011;27319;50.306;18.926;2023-09-07T09:36:22;7.05;;;4.03;;
41623;SDS011;27319;50.306;18.926;2023-09-07T09:39:24;5.60;;;3.50;;
41623;SDS011;27319;50.306;18.926;2023-09-07T09:42:24;5.38;;;3.65;;
41623;SDS011;27319;50.306;18.926;2023-09-07T09:45:26;5.82;;;4.07;;
41623;SDS011;27319;50.306;18.926;2023-09-07T09:48:28;5.60;;;3.80;;
41623;SDS011;27319;50.306;18.926;2023-09-07T09:51:30;17.88;;;4.55;;
41623;SDS011;27319;50.306;18.926;2023-09-07T09:54:33;7.95;;;3.88;;
41623;SDS011;27319;50.306;18.926;2023-09-07T09:57:35;8.00;;;4.40;;
41623;SDS011;27319;50.306;18.926;2023-09-07T10:00:36;8.35;;;3.95;;
41623;SDS011;27319;50.306;18.926;2023-09-07T10:03:40;7.38;;;4.22;;
41623;SDS011;27319;50.306;18.926;2023-09-07T10:06:49;7.65;;;3.97;;
41623;SDS011;27319;50.306;18.926;2023-09-07T10:10:02;7.88;;;3.33;;
41623;SDS011;27319;50.306;18.926;2023-09-07T10:13:04;8.88;;;3.67;;
41623;SDS011;27319;50.306;18.926;2023-09-07T10:16:06;8.45;;;4.25;;
41623;SDS011;27319;50.306;18.926;2023-09-07T10:19:17;11.57;;;5.38;;
41623;SDS011;27319;50.306;18.926;2023-09-07T10:22:20;6.88;;;4.00;;
41623;SDS011;27319;50.306;18.926;2023-09-07T10:25:23;10.38;;;5.95;;
41623;SDS011;27319;50.306;18.926;2023-09-07T10:28:25;17.25;;;4.63;;
41623;SDS011;27319;50.306;18.926;2023-09-07T10:31:26;4.43;;;3.22;;
41623;SDS011;27319;50.306;18.926;2023-09-07T10:34:34;8.25;;;3.60;;
41623;SDS011;27319;50.306;18.926;2023-09-07T10:37:37;5.93;;;3.90;;
41623;SDS011;27319;50.306;18.926;2023-09-07T10:40:40;9.10;;;3.63;;
41623;SDS011;27319;50.306;18.926;2023-09-07T10:43:50;12.57;;;4.53;;
41623;SDS011;27319;50.306;18.926;2023-09-07T10:46:54;12.10;;;4.78;;
41623;SDS011;27319;50.306;18.926;2023-09-07T10:49:56;6.03;;;4.00;;
41623;SDS011;27319;50.306;18.926;2023-09-07T10:52:58;5.05;;;3.50;;
41623;SDS011;27319;50.306;18.926;2023-09-07T10:56:04;7.38;;;4.10;;
41623;SDS011;27319;50.306;18.926;2023-09-07T10:59:06;5.90;;;4.28;;
41623;SDS011;27319;50.306;18.926;2023-09-07T11:02:07;10.10;;;6.22;;
41623;SDS011;27319;50.306;18.926;2023-09-07T11:05:08;9.45;;;4.15;;
41623;SDS011;27319;50.306;18.926;2023-09-07T11:08:10;8.40;;;4.82;;
41623;SDS011;27319;50.306;18.926;2023-09-07T11:11:11;6.45;;;3.40;;
41623;SDS011;27319;50.306;18.926;2023-09-07T11:14:13;5.93;;;3.33;;
41623;SDS011;27319;50.306;18.926;2023-09-07T11:17:14;8.10;;;3.58;;
41623;SDS011;27319;50.306;18.926;2023-09-07T11:20:16;5.75;;;3.65;;
41623;SDS011;27319;50.306;18.926;2023-09-07T11:23:17;6.82;;;3.45;;
41623;SDS011;27319;50.306;18.926;2023-09-07T11:26:19;4.47;;;3.15;;
41623;SDS011;27319;50.306;18.926;2023-09-07T11:29:22;5.30;;;3.58;;
41623;SDS011;27319;50.306;18.926;2023-09-07T11:32:23;5.82;;;3.50;;
41623;SDS011;27319;50.306;18.926;2023-09-07T11:35:24;6.93;;;3.75;;
41623;SDS011;27319;50.306;18.926;2023-09-07T11:38:28;6.57;;;3.42;;
41623;SDS011;27319;50.306;18.926;2023-09-07T11:41:30;7.30;;;3.65;;
41623;SDS011;27319;50.306;18.926;2023-09-07T11:44:31;5.47;;;3.35;;
41623;SDS011;27319;50.306;18.926;2023-09-07T11:47:32;9.40;;;3.28;;
41623;SDS011;27319;50.306;18.926;2023-09-07T11:50:35;6.47;;;3.53;;
41623;SDS011;27319;50.306;18.926;2023-09-07T11:53:37;4.93;;;3.25;;
41623;SDS011;27319;50.306;18.926;2023-09-07T11:56:37;7.28;;;3.45;;
41623;SDS011;27319;50.306;18.926;2023-09-07T11:59:43;5.35;;;2.97;;
41623;SDS011;27319;50.306;18.926;2023-09-07T12:02:44;5.43;;;3.40;;
41623;SDS011;27319;50.306;18.926;2023-09-07T12:05:45;6.15;;;3.85;;
41623;SDS011;27319;50.306;18.926;2023-09-07T12:09:02;8.27;;;3.90;;
41623;SDS011;27319;50.306;18.926;2023-09-07T12:12:10;12.85;;;3.97;;
41623;SDS011;27319;50.306;18.926;2023-09-07T12:15:11;5.43;;;3.47;;
41623;SDS011;27319;50.306;18.926;2023-09-07T12:18:12;15.65;;;4.53;;
41623;SDS011;27319;50.306;18.926;2023-09-07T12:21:13;14.55;;;4.68;;
41623;SDS011;27319;50.306;18.926;2023-09-07T12:24:14;7.43;;;4.07;;
41623;SDS011;27319;50.306;18.926;2023-09-07T12:27:15;14.48;;;3.67;;
41623;SDS011;27319;50.306;18.926;2023-09-07T12:30:19;23.13;;;4.30;;
41623;SDS011;27319;50.306;18.926;2023-09-07T12:33:21;9.93;;;4.25;;
41623;SDS011;27319;50.306;18.926;2023-09-07T12:36:22;10.40;;;3.80;;
41623;SDS011;27319;50.306;18.926;2023-09-07T12:39:22;9.15;;;3.67;;
41623;SDS011;27319;50.306;18.926;2023-09-07T12:42:23;7.82;;;3.72;;
41623;SDS011;27319;50.306;18.926;2023-09-07T12:45:24;5.72;;;3.72;;
41623;SDS011;27319;50.306;18.926;2023-09-07T12:48:25;8.45;;;3.55;;
41623;SDS011;27319;50.306;18.926;2023-09-07T12:51:26;6.82;;;4.07;;
41623;SDS011;27319;50.306;18.926;2023-09-07T12:54:27;9.05;;;4.32;;
41623;SDS011;27319;50.306;18.926;2023-09-07T12:57:28;6.88;;;3.63;;
41623;SDS011;27319;50.306;18.926;2023-09-07T13:00:29;9.35;;;3.25;;
41623;SDS011;27319;50.306;18.926;2023-09-07T13:03:29;4.40;;;2.90;;
41623;SDS011;27319;50.306;18.926;2023-09-07T13:06:31;5.50;;;3.30;;
41623;SDS011;27319;50.306;18.926;2023-09-07T13:09:31;6.80;;;3.58;;
41623;SDS011;27319;50.306;18.926;2023-09-07T13:12:32;4.38;;;3.20;;
41623;SDS011;27319;50.306;18.926;2023-09-07T13:15:33;9.82;;;3.50;;
41623;SDS011;27319;50.306;18.926;2023-09-07T13:18:34;5.25;;;3.33;;
41623;SDS011;27319;50.306;18.926;2023-09-07T13:21:35;5.00;;;3.25;;
41623;SDS011;27319;50.306;18.926;2023-09-07T13:24:36;4.05;;;3.15;;
41623;SDS011;27319;50.306;18.926;2023-09-07T13:27:37;9.43;;;3.92;;
41623;SDS011;27319;50.306;18.926;2023-09-07T13:30:38;6.35;;;4.70;;
41623;SDS011;27319;50.306;18.926;2023-09-07T13:33:39;11.52;;;7.55;;
41623;SDS011;27319;50.306;18.926;2023-09-07T13:36:40;9.82;;;5.70;;
41623;SDS011;27319;50.306;18.926;2023-09-07T13:39:41;7.30;;;4.03;;
41623;SDS011;27319;50.306;18.926;2023-09-07T13:42:42;6.13;;;3.40;;
41623;SDS011;27319;50.306;18.926;2023-09-07T13:45:43;6.68;;;3.13;;
41623;SDS011;27319;50.306;18.926;2023-09-07T13:48:44;4.03;;;3.00;;
41623;SDS011;27319;50.306;18.926;2023-09-07T13:51:45;5.05;;;3.33;;
41623;SDS011;27319;50.306;18.926;2023-09-07T13:54:46;6.57;;;3.65;;
41623;SDS011;27319;50.306;18.926;2023-09-07T13:57:47;7.78;;;3.28;;
41623;SDS011;27319;50.306;18.926;2023-09-07T14:00:48;8.55;;;3.50;;
41623;SDS011;27319;50.306;18.926;2023-09-07T14:03:51;7.57;;;3.72;;
41623;SDS011;27319;50.306;18.926;2023-09-07T14:06:52;7.20;;;3.17;;
41623;SDS011;27319;50.306;18.926;2023-09-07T14:09:56;4.82;;;3.42;;
41623;SDS011;27319;50.306;18.926;2023-09-07T14:12:57;8.13;;;3.33;;
41623;SDS011;27319;50.306;18.926;2023-09-07T14:15:58;6.55;;;3.30;;
41623;SDS011;27319;50.306;18.926;2023-09-07T14:18:59;8.90;;;3.25;;
41623;SDS011;27319;50.306;18.926;2023-09-07T14:22:00;4.63;;;3.20;;
41623;SDS011;27319;50.306;18.926;2023-09-07T14:25:01;6.68;;;3.40;;
41623;SDS011;27319;50.306;18.926;2023-09-07T14:28:01;7.10;;;3.70;;
41623;SDS011;27319;50.306;18.926;2023-09-07T14:31:02;6.50;;;2.80;;
41623;SDS011;27319;50.306;18.926;2023-09-07T14:34:04;10.70;;;3.20;;
41623;SDS011;27319;50.306;18.926;2023-09-07T14:37:05;5.50;;;3.08;;
41623;SDS011;27319;50.306;18.926;2023-09-07T14:40:06;7.97;;;3.00;;
41623;SDS011;27319;50.306;18.926;2023-09-07T14:43:08;10.27;;;3.40;;
41623;SDS011;27319;50.306;18.926;2023-09-07T14:46:11;5.80;;;3.00;;
41623;SDS011;27319;50.306;18.926;2023-09-07T14:49:12;7.00;;;3.58;;
41623;SDS011;27319;50.306;18.926;2023-09-07T14:52:12;4.82;;;3.40;;
41623;SDS011;27319;50.306;18.926;2023-09-07T14:55:13;7.10;;;3.35;;
41623;SDS011;27319;50.306;18.926;2023-09-07T14:58:15;5.43;;;3.10;;
41623;SDS011;27319;50.306;18.926;2023-09-07T15:01:16;4.70;;;3.05;;
41623;SDS011;27319;50.306;18.926;2023-09-07T15:04:16;5.95;;;2.90;;
41623;SDS011;27319;50.306;18.926;2023-09-07T15:07:17;7.40;;;2.95;;
41623;SDS011;27319;50.306;18.926;2023-09-07T15:10:19;6.32;;;3.38;;
41623;SDS011;27319;50.306;18.926;2023-09-07T15:13:20;8.77;;;3.90;;
41623;SDS011;27319;50.306;18.926;2023-09-07T15:16:21;6.68;;;3.58;;
41623;SDS011;27319;50.306;18.926;2023-09-07T15:19:24;5.28;;;3.35;;
41623;SDS011;27319;50.306;18.926;2023-09-07T15:22:24;7.40;;;3.95;;
41623;SDS011;27319;50.306;18.926;2023-09-07T15:25:26;9.57;;;3.17;;
41623;SDS011;27319;50.306;18.926;2023-09-07T15:28:27;5.25;;;3.42;;
41623;SDS011;27319;50.306;18.926;2023-09-07T15:31:28;5.90;;;3.50;;
41623;SDS011;27319;50.306;18.926;2023-09-07T15:34:29;6.20;;;3.75;;
41623;SDS011;27319;50.306;18.926;2023-09-07T15:37:30;4.90;;;3.15;;
41623;SDS011;27319;50.306;18.926;2023-09-07T15:40:30;6.90;;;3.40;;
41623;SDS011;27319;50.306;18.926;2023-09-07T15:43:32;8.43;;;3.33;;
41623;SDS011;27319;50.306;18.926;2023-09-07T15:46:32;4.78;;;3.33;;
41623;SDS011;27319;50.306;18.926;2023-09-07T15:49:34;5.72;;;3.63;;
41623;SDS011;27319;50.306;18.926;2023-09-07T15:52:45;8.98;;;3.53;;
41623;SDS011;27319;50.306;18.926;2023-09-07T15:55:47;8.15;;;4.07;;
41623;SDS011;27319;50.306;18.926;2023-09-07T15:58:48;6.18;;;3.13;;
41623;SDS011;27319;50.306;18.926;2023-09-07T16:01:50;8.82;;;3.60;;
41623;SDS011;27319;50.306;18.926;2023-09-07T16:04:51;7.07;;;3.50;;
41623;SDS011;27319;50.306;18.926;2023-09-07T16:07:53;9.50;;;3.22;;
41623;SDS011;27319;50.306;18.926;2023-09-07T16:10:54;9.13;;;3.90;;
41623;SDS011;27319;50.306;18.926;2023-09-07T16:13:59;5.50;;;3.58;;
41623;SDS011;27319;50.306;18.926;2023-09-07T16:16:59;7.95;;;3.60;;
41623;SDS011;27319;50.306;18.926;2023-09-07T16:20:00;6.57;;;3.75;;
41623;SDS011;27319;50.306;18.926;2023-09-07T16:23:01;5.43;;;3.60;;
41623;SDS011;27319;50.306;18.926;2023-09-07T16:26:02;7.63;;;3.75;;
41623;SDS011;27319;50.306;18.926;2023-09-07T16:29:03;7.28;;;3.90;;
41623;SDS011;27319;50.306;18.926;2023-09-07T16:32:04;9.50;;;3.75;;
41623;SDS011;27319;50.306;18.926;2023-09-07T16:35:05;5.93;;;3.85;;
41623;SDS011;27319;50.306;18.926;2023-09-07T16:38:06;11.52;;;5.05;;
41623;SDS011;27319;50.306;18.926;2023-09-07T16:41:07;5.10;;;3.40;;
41623;SDS011;27319;50.306;18.926;2023-09-07T16:44:08;7.43;;;4.13;;
41623;SDS011;27319;50.306;18.926;2023-09-07T16:47:08;8.43;;;4.80;;
41623;SDS011;27319;50.306;18.926;2023-09-07T16:50:09;11.93;;;4.20;;
41623;SDS011;27319;50.306;18.926;2023-09-07T16:53:10;5.28;;;3.83;;
41623;SDS011;27319;50.306;18.926;2023-09-07T16:56:11;6.20;;;5.00;;
41623;SDS011;27319;50.306;18.926;2023-09-07T16:59:12;8.50;;;4.72;;
41623;SDS011;27319;50.306;18.926;2023-09-07T17:02:13;8.68;;;4.47;;
41623;SDS011;27319;50.306;18.926;2023-09-07T17:05:14;7.95;;;4.60;;
41623;SDS011;27319;50.306;18.926;2023-09-07T17:08:15;7.00;;;4.22;;
41623;SDS011;27319;50.306;18.926;2023-09-07T17:11:17;7.95;;;3.95;;
41623;SDS011;27319;50.306;18.926;2023-09-07T17:14:18;6.53;;;4.40;;
41623;SDS011;27319;50.306;18.926;2023-09-07T17:17:19;6.35;;;4.55;;
41623;SDS011;27319;50.306;18.926;2023-09-07T17:20:20;6.57;;;4.30;;
41623;SDS011;27319;50.306;18.926;2023-09-07T17:23:20;6.97;;;4.45;;
41623;SDS011;27319;50.306;18.926;2023-09-07T17:26:21;9.30;;;5.20;;
41623;SDS011;27319;50.306;18.926;2023-09-07T17:29:22;10.75;;;5.28;;
41623;SDS011;27319;50.306;18.926;2023-09-07T17:32:23;7.65;;;5.18;;
41623;SDS011;27319;50.306;18.926;2023-09-07T17:35:24;10.55;;;5.53;;
41623;SDS011;27319;50.306;18.926;2023-09-07T17:38:25;8.07;;;5.13;;
41623;SDS011;27319;50.306;18.926;2023-09-07T17:41:26;10.40;;;6.13;;
41623;SDS011;27319;50.306;18.926;2023-09-07T17:44:29;7.88;;;5.60;;
41623;SDS011;27319;50.306;18.926;2023-09-07T17:47:29;14.00;;;5.78;;
41623;SDS011;27319;50.306;18.926;2023-09-07T17:50:30;12.25;;;5.75;;
41623;SDS011;27319;50.306;18.926;2023-09-07T17:53:32;9.00;;;5.35;;
41623;SDS011;27319;50.306;18.926;2023-09-07T17:56:34;7.63;;;5.30;;
41623;SDS011;27319;50.306;18.926;2023-09-07T17:59:35;9.15;;;5.35;;
41623;SDS011;27319;50.306;18.926;2023-09-07T18:02:36;7.93;;;4.97;;
41623;SDS011;27319;50.306;18.926;2023-09-07T18:05:40;8.40;;;6.15;;
41623;SDS011;27319;50.306;18.926;2023-09-07T18:08:41;10.07;;;5.55;;
41623;SDS011;27319;50.306;18.926;2023-09-07T18:11:42;8.52;;;5.68;;
41623;SDS011;27319;50.306;18.926;2023-09-07T18:14:47;10.27;;;5.25;;
41623;SDS011;27319;50.306;18.926;2023-09-07T18:17:48;8.05;;;5.20;;
41623;SDS011;27319;50.306;18.926;2023-09-07T18:20:49;9.48;;;5.97;;
41623;SDS011;27319;50.306;18.926;2023-09-07T18:23:50;9.02;;;5.03;;
41623;SDS011;27319;50.306;18.926;2023-09-07T18:26:51;9.38;;;5.70;;
41623;SDS011;27319;50.306;18.926;2023-09-07T18:29:51;8.25;;;5.53;;
41623;SDS011;27319;50.306;18.926;2023-09-07T18:32:52;9.63;;;5.72;;
41623;SDS011;27319;50.306;18.926;2023-09-07T18:36:06;16.10;;;6.03;;
41623;SDS011;27319;50.306;18.926;2023-09-07T18:39:08;11.80;;;5.50;;
41623;SDS011;27319;50.306;18.926;2023-09-07T18:42:09;10.40;;;7.05;;
41623;SDS011;27319;50.306;18.926;2023-09-07T18:45:10;10.05;;;6.20;;
41623;SDS011;27319;50.306;18.926;2023-09-07T18:48:11;13.45;;;6.90;;
41623;SDS011;27319;50.306;18.926;2023-09-07T18:51:12;12.43;;;7.05;;
41623;SDS011;27319;50.306;18.926;2023-09-07T18:54:13;18.08;;;7.05;;
41623;SDS011;27319;50.306;18.926;2023-09-07T18:57:14;15.15;;;7.25;;
41623;SDS011;27319;50.306;18.926;2023-09-07T19:00:15;13.13;;;7.22;;
41623;SDS011;27319;50.306;18.926;2023-09-07T19:03:16;13.68;;;6.97;;
41623;SDS011;27319;50.306;18.926;2023-09-07T19:06:17;12.98;;;7.32;;
41623;SDS011;27319;50.306;18.926;2023-09-07T19:09:18;12.25;;;7.38;;
41623;SDS011;27319;50.306;18.926;2023-09-07T19:12:19;11.55;;;7.25;;
41623;SDS011;27319;50.306;18.926;2023-09-07T19:15:20;12.15;;;6.85;;
41623;SDS011;27319;50.306;18.926;2023-09-07T19:18:21;14.30;;;7.72;;
41623;SDS011;27319;50.306;18.926;2023-09-07T19:21:22;14.80;;;7.47;;
41623;SDS011;27319;50.306;18.926;2023-09-07T19:24:22;12.10;;;7.10;;
41623;SDS011;27319;50.306;18.926;2023-09-07T19:27:23;11.20;;;7.38;;
41623;SDS011;27319;50.306;18.926;2023-09-07T19:30:24;11.82;;;7.07;;
41623;SDS011;27319;50.306;18.926;2023-09-07T19:33:25;11.52;;;7.80;;
41623;SDS011;27319;50.306;18.926;2023-09-07T19:36:26;14.68;;;7.90;;
41623;SDS011;27319;50.306;18.926;2023-09-07T19:39:27;14.20;;;7.53;;
41623;SDS011;27319;50.306;18.926;2023-09-07T19:42:28;13.55;;;7.72;;